Time;durP1;ratioP1;P1;durP2;ratioP2;P2;SDS_P1;SDS_P2;PMS_P1;PMS_P2;Temp;Humidity;BMP_temperature;BMP_pressure;BME280_temperature;BME280_humidity;BME280_pressure;Samples;Min_cycle;Max_cycle;Signal;HPM_P1;HPM_P2
2022/08/22 00:02:31;;;;;;;1.92;1.17;;;;;;;;;;4961088;28;20043;-66
2022/08/22 00:05:10;;;;;;;2.53;1.17;;;;;;;;;;4962297;28;20039;-68
2022/08/22 00:07:38;;;;;;;3.63;1.25;;;;;;;;;;4963152;28;20062;-65
2022/08/22 00:10:13;;;;;;;3.50;0.93;;;;;;;;;;4963668;28;20066;-65
2022/08/22 00:12:41;;;;;;;4.28;1.10;;;;;;;;;;4958016;28;20093;-65
2022/08/22 00:15:36;;;;;;;2.95;1.20;;;;;;;;;;4962684;28;20065;-67
2022/08/22 00:18:07;;;;;;;4.78;1.15;;;;;;;;;;4958088;28;20054;-67
2022/08/22 00:21:02;;;;;;;2.70;0.90;;;;;;;;;;4959872;28;20031;-67
2022/08/22 00:23:51;;;;;;;3.08;1.20;;;;;;;;;;4960452;28;20075;-67
2022/08/22 00:26:20;;;;;;;2.42;1.33;;;;;;;;;;4960509;28;20379;-65
2022/08/22 00:28:52;;;;;;;2.70;1.05;;;;;;;;;;4959611;28;20440;-68
2022/08/22 00:31:20;;;;;;;2.38;1.15;;;;;;;;;;4962064;28;20062;-67
2022/08/22 00:33:59;;;;;;;1.45;0.93;;;;;;;;;;4960600;28;20038;-68
2022/08/22 00:37:01;;;;;;;2.30;0.95;;;;;;;;;;4961801;28;20089;-66
2022/08/22 00:39:50;;;;;;;1.73;1.17;;;;;;;;;;4960446;28;20053;-65
2022/08/22 00:42:35;;;;;;;2.05;0.95;;;;;;;;;;4959459;28;20050;-65
2022/08/22 00:45:22;;;;;;;1.52;1.00;;;;;;;;;;4954636;28;20106;-66
2022/08/22 00:48:17;;;;;;;2.65;0.95;;;;;;;;;;4959377;28;20039;-65
2022/08/22 00:51:17;;;;;;;2.78;1.23;;;;;;;;;;4959275;28;20068;-67
2022/08/22 00:53:46;;;;;;;2.67;0.90;;;;;;;;;;4960814;28;20041;-70
2022/08/22 00:56:25;;;;;;;1.55;0.90;;;;;;;;;;4967152;28;20038;-66
2022/08/22 00:58:56;;;;;;;2.97;1.10;;;;;;;;;;4961660;28;20363;-68
2022/08/22 01:02:09;;;;;;;2.80;1.17;;;;;;;;;;4965138;28;20372;-68
2022/08/22 01:05:05;;;;;;;2.47;1.33;;;;;;;;;;4959577;28;20039;-70
2022/08/22 01:07:53;;;;;;;2.22;0.85;;;;;;;;;;4964651;28;20070;-68
2022/08/22 01:10:41;;;;;;;3.53;1.10;;;;;;;;;;4965263;28;20100;-67
2022/08/22 01:13:49;;;;;;;2.47;1.20;;;;;;;;;;4963508;28;20030;-68
2022/08/22 01:16:39;;;;;;;2.47;1.00;;;;;;;;;;4930311;28;20142;-69
2022/08/22 01:19:07;;;;;;;1.77;1.10;;;;;;;;;;4963832;28;20988;-68
2022/08/22 01:22:11;;;;;;;1.75;0.85;;;;;;;;;;4963810;28;20534;-68
2022/08/22 01:28:17;;;;;;;2.40;1.15;;;;;;;;;;4962277;28;20048;-65
2022/08/22 01:30:43;;;;;;;2.80;1.05;;;;;;;;;;4881429;29;20036;-70
2022/08/22 01:33:47;;;;;;;2.83;1.38;;;;;;;;;;4948837;28;20049;-70
2022/08/22 01:36:40;;;;;;;3.40;1.20;;;;;;;;;;4947561;28;20031;-70
2022/08/22 01:39:18;;;;;;;4.03;1.00;;;;;;;;;;4963699;28;20031;-70
2022/08/22 01:42:21;;;;;;;2.33;1.10;;;;;;;;;;4963688;28;20071;-70
2022/08/22 01:45:20;;;;;;;1.20;1.00;;;;;;;;;;4965758;28;20150;-69
2022/08/22 01:47:54;;;;;;;1.88;1.10;;;;;;;;;;4961673;28;21745;-70
2022/08/22 01:50:31;;;;;;;3.03;1.10;;;;;;;;;;4967088;28;20058;-70
2022/08/22 01:53:23;;;;;;;1.80;1.05;;;;;;;;;;4966257;28;20494;-68
2022/08/22 01:55:57;;;;;;;2.40;1.20;;;;;;;;;;4966041;28;20038;-67
2022/08/22 01:58:27;;;;;;;2.25;1.02;;;;;;;;;;4964424;28;20038;-69
2022/08/22 02:01:12;;;;;;;2.08;1.10;;;;;;;;;;4964550;28;20077;-70
2022/08/22 02:03:40;;;;;;;2.90;1.15;;;;;;;;;;4961610;28;20040;-67
2022/08/22 02:06:14;;;;;;;2.95;1.27;;;;;;;;;;4959578;28;20112;-68
2022/08/22 02:09:03;;;;;;;4.72;1.38;;;;;;;;;;4964414;28;20046;-68
2022/08/22 02:12:00;;;;;;;2.13;1.35;;;;;;;;;;4962416;28;20053;-68
2022/08/22 02:14:35;;;;;;;3.22;1.20;;;;;;;;;;4964301;28;20051;-70
2022/08/22 02:17:23;;;;;;;3.50;1.10;;;;;;;;;;4961558;28;20035;-70
2022/08/22 02:20:09;;;;;;;2.25;1.10;;;;;;;;;;4962707;28;20784;-66
2022/08/22 02:23:19;;;;;;;1.63;1.05;;;;;;;;;;4963919;28;20672;-70
2022/08/22 02:26:01;;;;;;;3.88;1.23;;;;;;;;;;4950470;28;20042;-70
2022/08/22 02:28:44;;;;;;;3.47;1.40;;;;;;;;;;4965439;28;20088;-69
2022/08/22 02:31:17;;;;;;;2.55;1.02;;;;;;;;;;4963649;28;20034;-68
2022/08/22 02:33:45;;;;;;;2.80;1.30;;;;;;;;;;4966925;28;20121;-70
2022/08/22 02:36:45;;;;;;;2.35;1.15;;;;;;;;;;4963273;28;20118;-68
2022/08/22 02:39:29;;;;;;;5.45;1.52;;;;;;;;;;4956962;28;20276;-70
2022/08/22 02:42:33;;;;;;;2.33;1.10;;;;;;;;;;4947971;28;20047;-70
2022/08/22 02:45:16;;;;;;;2.42;1.25;;;;;;;;;;4940678;28;20127;-69
2022/08/22 02:48:01;;;;;;;2.63;1.30;;;;;;;;;;4962266;28;20085;-68
2022/08/22 02:50:35;;;;;;;1.35;1.00;;;;;;;;;;4965511;28;20395;-69
2022/08/22 02:53:19;;;;;;;4.25;1.20;;;;;;;;;;4959362;28;20043;-69
2022/08/22 02:56:14;;;;;;;2.13;1.30;;;;;;;;;;4956312;28;20113;-69
2022/08/22 02:59:13;;;;;;;4.53;1.10;;;;;;;;;;4947641;28;20046;-70
2022/08/22 03:01:42;;;;;;;3.45;1.20;;;;;;;;;;4963258;28;20058;-69
2022/08/22 03:04:20;;;;;;;5.97;1.33;;;;;;;;;;4963130;28;20118;-69
2022/08/22 03:07:19;;;;;;;4.68;1.20;;;;;;;;;;4965485;28;20614;-68
2022/08/22 03:09:55;;;;;;;1.90;1.00;;;;;;;;;;4963538;28;20050;-70
2022/08/22 03:12:55;;;;;;;1.17;0.95;;;;;;;;;;4960219;28;20047;-69
2022/08/22 03:15:55;;;;;;;4.22;1.10;;;;;;;;;;4963251;28;20608;-69
2022/08/22 03:18:25;;;;;;;2.92;1.20;;;;;;;;;;4954018;28;20037;-67
2022/08/22 03:20:57;;;;;;;5.05;1.10;;;;;;;;;;4964881;28;20399;-69
2022/08/22 03:23:38;;;;;;;3.60;1.20;;;;;;;;;;4960939;28;20031;-66
2022/08/22 03:26:16;;;;;;;3.33;1.35;;;;;;;;;;4964308;28;20047;-68
2022/08/22 03:28:50;;;;;;;1.13;0.98;;;;;;;;;;4962525;28;20050;-69
2022/08/22 03:31:22;;;;;;;2.45;1.25;;;;;;;;;;4960219;28;20019;-68
2022/08/22 03:34:20;;;;;;;3.42;1.58;;;;;;;;;;4962918;28;20074;-69
2022/08/22 03:37:17;;;;;;;4.22;1.45;;;;;;;;;;4964466;28;20502;-69
2022/08/22 03:39:50;;;;;;;3.25;1.60;;;;;;;;;;4963008;28;20662;-66
2022/08/22 03:42:25;;;;;;;3.70;1.33;;;;;;;;;;4962114;28;20038;-71
2022/08/22 03:45:02;;;;;;;6.55;1.50;;;;;;;;;;4961347;28;20039;-68
2022/08/22 03:47:45;;;;;;;2.53;1.30;;;;;;;;;;4963003;28;20046;-69
2022/08/22 03:50:32;;;;;;;3.22;1.45;;;;;;;;;;4961758;28;20137;-69
2022/08/22 03:53:14;;;;;;;4.43;1.63;;;;;;;;;;4960708;28;20419;-69
2022/08/22 03:56:07;;;;;;;5.57;1.50;;;;;;;;;;4964864;28;20066;-66
2022/08/22 03:58:39;;;;;;;;;;;;;;;;;;4963091;28;20031;-68
2022/08/22 04:01:42;;;;;;;2.45;1.50;;;;;;;;;;4960443;28;19945;-68
2022/08/22 04:04:10;;;;;;;3.35;1.48;;;;;;;;;;4960765;28;20600;-69
2022/08/22 04:07:04;;;;;;;5.13;1.60;;;;;;;;;;4962676;28;20470;-69
2022/08/22 04:09:55;;;;;;;3.15;1.50;;;;;;;;;;4936031;28;20043;-68
2022/08/22 04:12:48;;;;;;;4.40;1.63;;;;;;;;;;4960675;28;20053;-71
2022/08/22 04:15:48;;;;;;;3.63;1.70;;;;;;;;;;4958255;28;21896;-70
2022/08/22 04:18:35;;;;;;;4.20;1.90;;;;;;;;;;4961912;28;20066;-69
2022/08/22 04:21:08;;;;;;;2.35;1.63;;;;;;;;;;4961390;28;20035;-70
2022/08/22 04:23:55;;;;;;;5.93;1.55;;;;;;;;;;4960762;28;20074;-70
2022/08/22 04:26:51;;;;;;;1.75;1.20;;;;;;;;;;4957366;28;20039;-71
2022/08/22 04:29:44;;;;;;;2.00;1.33;;;;;;;;;;4963709;28;20101;-69
2022/08/22 04:32:25;;;;;;;3.53;1.30;;;;;;;;;;4956524;28;20035;-68
2022/08/22 04:35:17;;;;;;;3.75;1.50;;;;;;;;;;4964611;28;20051;-69
2022/08/22 04:37:55;;;;;;;3.58;1.65;;;;;;;;;;4965584;28;20042;-70
2022/08/22 04:40:27;;;;;;;6.97;1.60;;;;;;;;;;4965515;28;20043;-69
2022/08/22 04:43:16;;;;;;;3.65;1.67;;;;;;;;;;4963058;28;20070;-69
2022/08/22 04:45:53;;;;;;;5.00;1.60;;;;;;;;;;4963608;28;20443;-69
2022/08/22 04:48:41;;;;;;;3.53;1.58;;;;;;;;;;4963395;28;20090;-68
2022/08/22 04:51:17;;;;;;;4.60;1.50;;;;;;;;;;4966803;28;20464;-69
2022/08/22 04:54:10;;;;;;;3.88;1.50;;;;;;;;;;4963423;28;20407;-68
2022/08/22 04:56:39;;;;;;;;;;;;;;;;;;4967022;28;20039;-68
2022/08/22 04:59:11;;;;;;;3.75;1.50;;;;;;;;;;4961316;28;20005;-67
2022/08/22 05:01:55;;;;;;;3.25;1.50;;;;;;;;;;4964145;28;20491;-72
2022/08/22 05:04:27;;;;;;;2.92;1.42;;;;;;;;;;4964320;28;20102;-68
2022/08/22 05:07:00;;;;;;;2.65;1.48;;;;;;;;;;4966855;28;20403;-70
2022/08/22 05:09:29;;;;;;;4.80;1.58;;;;;;;;;;4965805;28;20042;-69
2022/08/22 05:12:04;;;;;;;4.30;1.80;;;;;;;;;;4967306;28;20074;-70
2022/08/22 05:14:41;;;;;;;3.95;2.42;;;;;;;;;;4964101;28;20121;-69
2022/08/22 05:17:11;;;;;;;4.72;1.90;;;;;;;;;;4961073;28;20035;-69
2022/08/22 05:19:41;;;;;;;4.80;1.67;;;;;;;;;;4963907;28;20399;-67
2022/08/22 05:22:18;;;;;;;7.80;1.77;;;;;;;;;;4963406;28;20320;-70
2022/08/22 05:24:47;;;;;;;4.60;1.35;;;;;;;;;;4963006;28;20043;-69
2022/08/22 05:27:21;;;;;;;3.13;1.48;;;;;;;;;;4960265;28;20149;-69
2022/08/22 05:29:52;;;;;;;3.65;1.52;;;;;;;;;;4966271;28;20507;-69
2022/08/22 05:32:30;;;;;;;5.40;2.00;;;;;;;;;;4959702;28;20466;-69
2022/08/22 05:35:02;;;;;;;5.50;1.60;;;;;;;;;;4966456;28;20038;-67
2022/08/22 05:37:42;;;;;;;3.03;1.38;;;;;;;;;;4965796;28;20047;-69
2022/08/22 05:40:17;;;;;;;5.13;1.40;;;;;;;;;;4966195;28;20082;-68
2022/08/22 05:42:43;;;;;;;12.70;2.10;;;;;;;;;;4966057;28;20054;-69
2022/08/22 05:45:11;;;;;;;12.15;2.20;;;;;;;;;;4964072;28;20067;-68
2022/08/22 05:47:41;;;;;;;50.30;4.28;;;;;;;;;;4947713;28;20042;-68
2022/08/22 05:50:14;;;;;;;13.50;2.15;;;;;;;;;;4962461;28;20051;-69
2022/08/22 05:53:13;;;;;;;6.82;1.75;;;;;;;;;;4964138;28;20039;-69
2022/08/22 05:55:49;;;;;;;6.28;1.88;;;;;;;;;;4964150;28;20038;-70
2022/08/22 05:58:33;;;;;;;3.10;1.40;;;;;;;;;;4959927;28;20403;-68
2022/08/22 06:01:30;;;;;;;4.57;1.75;;;;;;;;;;4964114;28;20081;-70
2022/08/22 06:04:15;;;;;;;3.30;1.50;;;;;;;;;;4966166;28;20053;-66
2022/08/22 06:06:48;;;;;;;4.75;1.48;;;;;;;;;;4964351;28;20050;-68
2022/08/22 06:09:26;;;;;;;3.88;1.73;;;;;;;;;;4961419;28;20043;-69
2022/08/22 06:12:04;;;;;;;7.10;1.63;;;;;;;;;;4965821;28;20050;-67
2022/08/22 06:14:56;;;;;;;4.13;1.70;;;;;;;;;;4963872;28;20458;-68
2022/08/22 06:17:32;;;;;;;4.28;1.60;;;;;;;;;;4960905;28;20292;-67
2022/08/22 06:19:58;;;;;;;3.95;1.67;;;;;;;;;;4963978;28;20496;-67
2022/08/22 06:22:28;;;;;;;5.88;1.80;;;;;;;;;;4964136;28;20037;-68
2022/08/22 06:24:59;;;;;;;4.80;1.70;;;;;;;;;;4964096;28;20395;-67
2022/08/22 06:27:26;;;;;;;6.00;1.70;;;;;;;;;;4956180;28;20929;-67
2022/08/22 06:29:58;;;;;;;6.80;1.60;;;;;;;;;;4967498;28;20039;-65
2022/08/22 06:32:41;;;;;;;4.93;1.80;;;;;;;;;;4960800;28;20040;-69
2022/08/22 06:35:25;;;;;;;3.22;1.58;;;;;;;;;;4946351;28;20039;-67
2022/08/22 06:37:57;;;;;;;7.70;1.67;;;;;;;;;;4963772;28;20936;-70
2022/08/22 06:40:23;;;;;;;12.45;2.25;;;;;;;;;;4963844;28;20122;-71
2022/08/22 06:42:51;;;;;;;11.05;2.33;;;;;;;;;;4966550;28;20352;-70
2022/08/22 06:45:21;;;;;;;19.75;2.60;;;;;;;;;;4958710;28;20090;-69
2022/08/22 06:48:04;;;;;;;18.70;2.72;;;;;;;;;;4960884;28;20159;-69
2022/08/22 06:50:34;;;;;;;17.00;2.47;;;;;;;;;;4961481;28;20051;-69
2022/08/22 06:53:08;;;;;;;12.73;2.42;;;;;;;;;;4959199;28;20948;-64
2022/08/22 06:55:37;;;;;;;18.35;2.70;;;;;;;;;;4960841;28;20051;-68
2022/08/22 06:58:13;;;;;;;12.57;2.25;;;;;;;;;;4962015;28;20181;-69
2022/08/22 07:00:41;;;;;;;12.48;2.70;;;;;;;;;;4960332;28;20039;-65
2022/08/22 07:03:14;;;;;;;12.75;2.40;;;;;;;;;;4961082;28;20043;-68
2022/08/22 07:05:41;;;;;;;16.35;3.30;;;;;;;;;;4960231;28;20133;-68
2022/08/22 07:08:11;;;;;;;9.50;2.47;;;;;;;;;;4964238;28;20125;-69
2022/08/22 07:10:40;;;;;;;14.25;2.83;;;;;;;;;;4961952;28;21052;-70
2022/08/22 07:13:12;;;;;;;9.90;2.30;;;;;;;;;;4959823;28;20733;-68
2022/08/22 07:15:41;;;;;;;11.68;2.42;;;;;;;;;;4960790;28;20121;-67
2022/08/22 07:18:18;;;;;;;8.32;1.85;;;;;;;;;;4961792;28;20031;-67
2022/08/22 07:20:51;;;;;;;7.70;1.95;;;;;;;;;;4960749;28;20181;-66
2022/08/22 07:23:30;;;;;;;5.25;2.15;;;;;;;;;;4960537;28;20094;-68
2022/08/22 07:26:26;;;;;;;4.88;2.17;;;;;;;;;;4964260;28;20046;-68
2022/08/22 07:29:14;;;;;;;11.15;2.30;;;;;;;;;;4963593;28;20141;-68
2022/08/22 07:32:23;;;;;;;6.95;2.33;;;;;;;;;;4962289;28;20124;-68
2022/08/22 07:35:03;;;;;;;9.50;2.83;;;;;;;;;;4965891;28;20043;-65
2022/08/22 07:38:02;;;;;;;10.43;2.53;;;;;;;;;;4960490;28;20331;-68
2022/08/22 07:40:43;;;;;;;8.07;2.42;;;;;;;;;;4961585;28;21340;-68
2022/08/22 07:43:29;;;;;;;15.20;2.63;;;;;;;;;;4958199;28;20462;-66
2022/08/22 07:46:04;;;;;;;9.43;2.17;;;;;;;;;;4957831;28;20046;-68
2022/08/22 07:48:44;;;;;;;2.88;2.15;;;;;;;;;;4958422;28;20494;-67
2022/08/22 07:51:16;;;;;;;9.43;3.45;;;;;;;;;;4959439;28;20038;-68
2022/08/22 07:53:53;;;;;;;8.90;2.88;;;;;;;;;;4961180;28;20035;-67
2022/08/22 07:56:24;;;;;;;5.22;1.92;;;;;;;;;;4958418;28;20042;-66
2022/08/22 07:58:57;;;;;;;3.50;2.25;;;;;;;;;;4959959;28;20046;-65
2022/08/22 08:01:24;;;;;;;3.42;2.25;;;;;;;;;;4959514;28;20042;-67
2022/08/22 08:04:06;;;;;;;3.35;2.28;;;;;;;;;;4961436;28;20043;-68
2022/08/22 08:06:33;;;;;;;7.13;2.20;;;;;;;;;;4945768;28;20051;-67
2022/08/22 08:09:00;;;;;;;6.70;2.10;;;;;;;;;;4959983;28;20046;-67
2022/08/22 08:11:32;;;;;;;4.90;2.10;;;;;;;;;;4961745;28;20122;-68
2022/08/22 08:14:05;;;;;;;6.85;2.22;;;;;;;;;;4959306;28;20051;-65
2022/08/22 08:16:39;;;;;;;5.57;2.25;;;;;;;;;;4960150;28;20039;-67
2022/08/22 08:19:06;;;;;;;3.33;1.95;;;;;;;;;;4960063;28;20034;-68
2022/08/22 08:21:45;;;;;;;8.60;2.10;;;;;;;;;;4961508;28;20940;-65
2022/08/22 08:24:18;;;;;;;11.27;2.38;;;;;;;;;;4962205;28;20043;-64
2022/08/22 08:29:36;;;;;;;6.28;2.28;;;;;;;;;;4963343;28;20126;-66
2022/08/22 08:32:04;;;;;;;11.95;2.30;;;;;;;;;;4956950;28;20046;-67
2022/08/22 08:34:33;;;;;;;7.00;2.28;;;;;;;;;;4962206;28;20053;-67
2022/08/22 08:37:04;;;;;;;7.85;2.58;;;;;;;;;;4960916;28;20031;-68
2022/08/22 08:39:36;;;;;;;5.88;2.10;;;;;;;;;;4962400;28;20042;-68
2022/08/22 08:42:20;;;;;;;6.93;1.95;;;;;;;;;;4959168;28;20407;-66
2022/08/22 08:44:55;;;;;;;5.47;2.10;;;;;;;;;;4958914;28;20368;-65
2022/08/22 08:47:46;;;;;;;9.00;2.30;;;;;;;;;;4957987;28;20042;-67
2022/08/22 08:50:36;;;;;;;9.32;2.42;;;;;;;;;;4957738;28;20043;-69
2022/08/22 08:53:10;;;;;;;5.38;2.10;;;;;;;;;;4958538;28;20046;-67
2022/08/22 08:55:44;;;;;;;5.70;2.40;;;;;;;;;;4958350;28;20049;-68
2022/08/22 08:58:14;;;;;;;7.43;2.03;;;;;;;;;;4958623;28;20036;-67
2022/08/22 09:00:55;;;;;;;6.45;2.10;;;;;;;;;;4961141;28;20495;-67
2022/08/22 09:03:46;;;;;;;10.95;2.45;;;;;;;;;;4960096;28;20043;-66
2022/08/22 09:06:33;;;;;;;9.38;2.33;;;;;;;;;;4955605;28;20036;-67
2022/08/22 09:09:13;;;;;;;10.77;2.35;;;;;;;;;;4960913;28;20129;-68
2022/08/22 09:11:56;;;;;;;11.63;2.30;;;;;;;;;;4958940;28;20050;-67
2022/08/22 09:14:54;;;;;;;5.82;2.60;;;;;;;;;;4964203;28;20050;-67
2022/08/22 09:17:51;;;;;;;6.85;1.85;;;;;;;;;;4960553;28;20039;-66
2022/08/22 09:20:59;;;;;;;11.35;2.40;;;;;;;;;;4961363;28;20724;-67
2022/08/22 09:24:17;;;;;;;3.75;2.05;;;;;;;;;;4964839;28;20034;-67
2022/08/22 09:26:53;;;;;;;13.60;2.65;;;;;;;;;;4926352;29;20039;-66
2022/08/22 09:29:31;;;;;;;4.45;2.00;;;;;;;;;;4956862;28;20506;-66
2022/08/22 09:31:56;;;;;;;4.55;2.15;;;;;;;;;;4963090;28;20043;-65
2022/08/22 09:34:37;;;;;;;13.65;2.63;;;;;;;;;;4964627;28;20034;-66
2022/08/22 09:37:18;;;;;;;7.40;2.40;;;;;;;;;;4965696;28;20455;-66
2022/08/22 09:39:57;;;;;;;9.60;2.40;;;;;;;;;;4963919;28;20035;-66
2022/08/22 09:42:39;;;;;;;9.30;2.20;;;;;;;;;;4961247;28;20856;-66
2022/08/22 09:45:30;;;;;;;5.57;2.67;;;;;;;;;;4957869;28;20089;-66
2022/08/22 09:48:07;;;;;;;11.02;2.92;;;;;;;;;;4961433;28;20043;-66
2022/08/22 09:50:49;;;;;;;8.25;2.50;;;;;;;;;;4960617;28;20487;-66
2022/08/22 09:53:32;;;;;;;9.45;3.58;;;;;;;;;;4963483;28;20046;-66
2022/08/22 09:56:09;;;;;;;9.40;2.40;;;;;;;;;;4963064;28;20041;-66
2022/08/22 09:59:02;;;;;;;5.25;2.40;;;;;;;;;;4961926;28;20074;-66
2022/08/22 10:01:47;;;;;;;4.22;1.90;;;;;;;;;;4954482;28;20149;-67
2022/08/22 10:04:13;;;;;;;5.50;2.83;;;;;;;;;;4957725;28;20043;-65
2022/08/22 10:07:25;;;;;;;6.90;2.22;;;;;;;;;;4956923;28;20045;-66
2022/08/22 10:10:03;;;;;;;10.18;2.42;;;;;;;;;;4938431;28;20062;-66
2022/08/22 10:12:51;;;;;;;5.65;2.72;;;;;;;;;;4958487;28;20043;-66
2022/08/22 10:15:33;;;;;;;5.07;2.60;;;;;;;;;;4951738;28;20440;-66
2022/08/22 10:18:10;;;;;;;5.10;2.28;;;;;;;;;;4962942;28;20410;-66
2022/08/22 10:21:01;;;;;;;7.43;2.35;;;;;;;;;;4964975;28;20180;-66
2022/08/22 10:23:48;;;;;;;12.25;2.90;;;;;;;;;;4967851;28;20035;-67
2022/08/22 10:26:25;;;;;;;3.90;2.33;;;;;;;;;;4965757;28;20477;-70
2022/08/22 10:28:56;;;;;;;7.80;2.40;;;;;;;;;;4966782;28;20075;-67
2022/08/22 10:31:33;;;;;;;11.10;2.75;;;;;;;;;;4947642;28;20030;-70
2022/08/22 10:34:16;;;;;;;7.13;2.63;;;;;;;;;;4966990;28;20026;-65
2022/08/22 10:37:14;;;;;;;10.20;3.00;;;;;;;;;;4965758;28;20459;-70
2022/08/22 10:39:51;;;;;;;7.57;2.58;;;;;;;;;;4959199;28;20478;-69
2022/08/22 10:42:23;;;;;;;5.28;2.40;;;;;;;;;;4964082;28;20047;-69
2022/08/22 10:45:06;;;;;;;3.55;2.25;;;;;;;;;;4966387;28;20035;-68
2022/08/22 10:47:41;;;;;;;3.08;2.22;;;;;;;;;;4964521;28;20070;-66
2022/08/22 10:50:22;;;;;;;5.78;2.50;;;;;;;;;;4960445;28;20156;-68
2022/08/22 10:53:28;;;;;;;5.40;2.38;;;;;;;;;;4963191;28;20395;-67
2022/08/22 10:55:40;;;;;;;6.75;2.42;;;;;;;;;;4964521;28;20050;-67
2022/08/22 10:58:12;;;;;;;6.78;2.17;;;;;;;;;;4962842;28;20034;-67
2022/08/22 11:00:58;;;;;;;22.27;3.10;;;;;;;;;;4961942;28;20089;-70
2022/08/22 11:03:48;;;;;;;15.30;3.10;;;;;;;;;;4961227;28;20601;-66
2022/08/22 11:06:24;;;;;;;5.40;2.28;;;;;;;;;;4960889;28;20041;-67
2022/08/22 11:08:52;;;;;;;3.72;2.30;;;;;;;;;;4964329;28;20043;-68
2022/08/22 11:11:39;;;;;;;5.25;2.20;;;;;;;;;;4959524;28;20096;-67
2022/08/22 11:14:29;;;;;;;5.55;2.10;;;;;;;;;;4963578;28;20074;-66
2022/08/22 11:17:19;;;;;;;7.05;2.25;;;;;;;;;;4959972;28;20042;-66
2022/08/22 11:20:05;;;;;;;2.40;1.80;;;;;;;;;;4964077;28;20296;-66
2022/08/22 11:22:47;;;;;;;5.60;2.10;;;;;;;;;;4959848;28;20337;-66
2022/08/22 11:25:50;;;;;;;2.40;1.93;;;;;;;;;;4962199;28;20031;-67
2022/08/22 11:28:55;;;;;;;5.32;2.03;;;;;;;;;;4959805;28;20054;-67
2022/08/22 11:31:22;;;;;;;3.72;2.15;;;;;;;;;;4956913;28;20874;-67
2022/08/22 11:33:56;;;;;;;2.38;1.90;;;;;;;;;;4963080;28;20081;-66
2022/08/22 11:36:44;;;;;;;2.80;1.80;;;;;;;;;;4959936;28;20125;-66
2022/08/22 11:39:32;;;;;;;5.68;2.40;;;;;;;;;;4962493;28;20040;-67
2022/08/22 11:42:12;;;;;;;4.78;2.40;;;;;;;;;;4960223;28;20117;-66
2022/08/22 11:44:47;;;;;;;3.10;2.00;;;;;;;;;;4960160;28;20034;-66
2022/08/22 11:47:17;;;;;;;6.07;2.22;;;;;;;;;;4962222;28;20043;-67
2022/08/22 11:49:56;;;;;;;5.20;2.33;;;;;;;;;;4959629;28;20130;-67
2022/08/22 11:52:46;;;;;;;4.18;2.08;;;;;;;;;;4958363;28;21036;-67
2022/08/22 11:55:25;;;;;;;2.10;1.80;;;;;;;;;;4962351;28;20023;-67
2022/08/22 11:58:20;;;;;;;3.20;2.10;;;;;;;;;;4963397;28;20038;-67
2022/08/22 12:01:14;;;;;;;2.55;1.60;;;;;;;;;;4955788;28;20051;-66
2022/08/22 12:03:49;;;;;;;5.57;2.08;;;;;;;;;;4962828;28;20138;-67
2022/08/22 12:06:37;;;;;;;4.80;1.90;;;;;;;;;;4960680;28;20625;-66
2022/08/22 12:09:40;;;;;;;6.75;2.10;;;;;;;;;;4954068;28;20042;-67
2022/08/22 12:12:24;;;;;;;4.47;2.10;;;;;;;;;;4958638;28;20062;-66
2022/08/22 12:15:14;;;;;;;3.85;2.05;;;;;;;;;;4962584;28;20039;-67
2022/08/22 12:18:16;;;;;;;3.78;1.80;;;;;;;;;;4959990;28;20102;-67
2022/08/22 12:21:01;;;;;;;3.65;2.10;;;;;;;;;;4961476;28;20113;-67
2022/08/22 12:23:49;;;;;;;4.72;2.42;;;;;;;;;;4958496;28;20051;-67
2022/08/22 12:26:20;;;;;;;6.00;2.30;;;;;;;;;;4959274;28;20047;-67
2022/08/22 12:28:51;;;;;;;3.10;2.00;;;;;;;;;;4943836;28;20096;-67
2022/08/22 12:31:34;;;;;;;3.90;1.92;;;;;;;;;;4961832;28;20905;-67
2022/08/22 12:33:59;;;;;;;3.35;1.98;;;;;;;;;;4963364;28;20061;-67
2022/08/22 12:37:14;;;;;;;3.42;1.90;;;;;;;;;;4958904;28;20092;-66
2022/08/22 12:40:09;;;;;;;4.68;2.10;;;;;;;;;;4962997;28;20376;-67
2022/08/22 12:42:58;;;;;;;3.78;2.10;;;;;;;;;;4959095;28;20172;-67
2022/08/22 12:45:33;;;;;;;2.20;1.88;;;;;;;;;;4961105;28;20038;-66
2022/08/22 12:48:14;;;;;;;8.15;2.25;;;;;;;;;;4962452;28;20034;-70
2022/08/22 12:51:16;;;;;;;5.63;2.10;;;;;;;;;;4963611;28;20073;-67
2022/08/22 12:54:13;;;;;;;2.70;2.10;;;;;;;;;;4963695;28;20062;-68
2022/08/22 12:57:18;;;;;;;6.18;2.55;;;;;;;;;;4961594;28;20058;-67
2022/08/22 12:59:50;;;;;;;3.65;1.92;;;;;;;;;;4965834;28;20700;-67
2022/08/22 13:02:23;;;;;;;2.92;1.95;;;;;;;;;;4963255;28;20109;-67
2022/08/22 13:04:54;;;;;;;6.00;1.80;;;;;;;;;;4965464;28;20886;-67
2022/08/22 13:07:50;;;;;;;4.00;2.10;;;;;;;;;;4962096;28;20042;-67
2022/08/22 13:10:15;;;;;;;3.70;2.30;;;;;;;;;;4959651;28;20039;-66
2022/08/22 13:12:54;;;;;;;3.57;1.83;;;;;;;;;;4963822;28;20043;-67
2022/08/22 13:15:19;;;;;;;4.93;1.80;;;;;;;;;;4962804;28;20286;-65
2022/08/22 13:17:45;;;;;;;2.73;1.50;;;;;;;;;;4965770;28;20043;-68
2022/08/22 13:20:37;;;;;;;4.13;1.90;;;;;;;;;;4964224;28;20301;-66
2022/08/22 13:23:16;;;;;;;4.07;1.70;;;;;;;;;;4965001;28;20070;-65
2022/08/22 13:26:16;;;;;;;4.35;2.05;;;;;;;;;;4964695;28;20042;-67
2022/08/22 13:29:16;;;;;;;3.85;2.08;;;;;;;;;;4959148;28;20051;-67
2022/08/22 13:31:43;;;;;;;5.10;2.10;;;;;;;;;;4914695;28;20043;-69
2022/08/22 13:34:31;;;;;;;4.30;1.90;;;;;;;;;;4962194;28;20096;-66
2022/08/22 13:36:59;;;;;;;2.72;1.95;;;;;;;;;;4965836;28;20561;-67
2022/08/22 13:39:31;;;;;;;4.93;1.90;;;;;;;;;;4964791;28;20051;-67
2022/08/22 13:41:59;;;;;;;7.70;1.80;;;;;;;;;;4964157;28;20062;-66
2022/08/22 13:44:48;;;;;;;4.47;2.00;;;;;;;;;;4961942;28;20043;-67
2022/08/22 13:47:17;;;;;;;3.50;2.00;;;;;;;;;;4959873;28;20039;-67
2022/08/22 13:49:50;;;;;;;2.00;1.75;;;;;;;;;;4963044;28;20515;-67
2022/08/22 13:52:21;;;;;;;4.85;1.98;;;;;;;;;;4960090;28;20080;-66
2022/08/22 13:55:18;;;;;;;5.87;2.10;;;;;;;;;;4965533;28;20114;-66
2022/08/22 13:57:47;;;;;;;4.88;1.98;;;;;;;;;;4962341;28;20125;-67
2022/08/22 14:00:18;;;;;;;2.42;1.80;;;;;;;;;;4960825;28;20042;-66
2022/08/22 14:03:08;;;;;;;8.02;2.05;;;;;;;;;;4967755;28;20043;-67
2022/08/22 14:05:49;;;;;;;3.67;1.70;;;;;;;;;;4964411;28;20419;-66
2022/08/22 14:08:20;;;;;;;4.22;1.95;;;;;;;;;;4966251;28;20494;-66
2022/08/22 14:10:59;;;;;;;3.05;1.80;;;;;;;;;;4964770;28;20038;-66
2022/08/22 14:13:24;;;;;;;5.00;2.10;;;;;;;;;;4966669;28;20027;-66
2022/08/22 14:15:58;;;;;;;2.10;1.70;;;;;;;;;;4966717;28;20454;-66
2022/08/22 14:18:37;;;;;;;5.07;1.98;;;;;;;;;;4964140;28;20317;-66
2022/08/22 14:21:25;;;;;;;4.45;1.77;;;;;;;;;;4963660;28;20035;-66
2022/08/22 14:23:53;;;;;;;3.42;1.90;;;;;;;;;;4965213;28;20038;-67
2022/08/22 14:26:28;;;;;;;4.82;2.13;;;;;;;;;;4962029;28;20154;-68
2022/08/22 14:28:58;;;;;;;4.47;1.70;;;;;;;;;;4959757;28;20531;-68
2022/08/22 14:31:26;;;;;;;4.10;1.73;;;;;;;;;;4958772;28;20034;-65
2022/08/22 14:33:58;;;;;;;5.22;1.70;;;;;;;;;;4962027;28;20034;-66
2022/08/22 14:36:45;;;;;;;5.22;1.85;;;;;;;;;;4961872;28;20046;-65
2022/08/22 14:39:24;;;;;;;4.78;1.92;;;;;;;;;;4964313;28;20043;-66
2022/08/22 14:41:56;;;;;;;4.75;2.17;;;;;;;;;;4963378;28;20051;-67
2022/08/22 14:44:35;;;;;;;3.95;1.70;;;;;;;;;;4963419;28;20795;-67
2022/08/22 14:47:04;;;;;;;3.00;1.90;;;;;;;;;;4963305;28;20521;-66
2022/08/22 14:49:34;;;;;;;4.50;1.95;;;;;;;;;;4962363;28;20077;-66
2022/08/22 14:52:11;;;;;;;8.07;3.10;;;;;;;;;;4963102;28;20471;-67
2022/08/22 14:54:37;;;;;;;3.17;1.75;;;;;;;;;;4961287;28;20065;-67
2022/08/22 14:57:12;;;;;;;5.88;2.20;;;;;;;;;;4964288;28;20562;-67
2022/08/22 14:59:45;;;;;;;5.57;2.33;;;;;;;;;;4962755;28;20046;-66
2022/08/22 15:02:31;;;;;;;5.45;2.15;;;;;;;;;;4962117;28;20495;-67
2022/08/22 15:05:11;;;;;;;6.43;2.50;;;;;;;;;;4964038;28;20101;-67
2022/08/22 15:07:36;;;;;;;2.65;1.60;;;;;;;;;;4961639;28;20082;-66
2022/08/22 15:10:20;;;;;;;3.33;1.88;;;;;;;;;;4962447;28;20046;-67
2022/08/22 15:12:50;;;;;;;4.05;1.95;;;;;;;;;;4962852;28;20683;-67
2022/08/22 15:15:39;;;;;;;5.18;2.35;;;;;;;;;;4961807;28;20069;-67
2022/08/22 15:18:27;;;;;;;3.70;2.10;;;;;;;;;;4963692;28;20053;-67
2022/08/22 15:21:04;;;;;;;2.70;1.70;;;;;;;;;;4955523;28;20034;-67
2022/08/22 15:23:30;;;;;;;3.58;1.90;;;;;;;;;;4959214;28;20491;-66
2022/08/22 15:26:00;;;;;;;4.15;2.05;;;;;;;;;;4961864;28;20169;-66
2022/08/22 15:28:26;;;;;;;4.35;1.92;;;;;;;;;;4961819;28;20069;-66
2022/08/22 15:31:13;;;;;;;2.53;1.98;;;;;;;;;;4958836;28;20117;-66
2022/08/22 15:33:41;;;;;;;3.10;1.65;;;;;;;;;;4963525;28;20043;-68
2022/08/22 15:36:20;;;;;;;4.10;2.00;;;;;;;;;;4960777;28;20479;-66
2022/08/22 15:38:52;;;;;;;6.20;2.00;;;;;;;;;;4961781;28;20085;-68
2022/08/22 15:41:23;;;;;;;3.35;1.90;;;;;;;;;;4959322;28;20053;-66
2022/08/22 15:44:36;;;;;;;1.90;1.67;;;;;;;;;;4960056;28;20031;-67
2022/08/22 15:47:24;;;;;;;5.43;2.00;;;;;;;;;;4906677;29;20265;-66
2022/08/22 15:49:54;;;;;;;4.93;1.88;;;;;;;;;;4960223;28;20093;-67
2022/08/22 15:52:28;;;;;;;5.15;1.98;;;;;;;;;;4957414;28;20034;-66
2022/08/22 15:54:53;;;;;;;2.97;1.70;;;;;;;;;;4961869;28;20030;-66
2022/08/22 15:57:31;;;;;;;2.73;1.80;;;;;;;;;;4960570;28;20042;-66
2022/08/22 16:00:00;;;;;;;5.25;1.98;;;;;;;;;;4963113;28;20698;-66
2022/08/22 16:02:52;;;;;;;5.22;1.75;;;;;;;;;;4959593;28;20559;-66
2022/08/22 16:05:39;;;;;;;2.45;1.70;;;;;;;;;;4961026;28;20043;-66
2022/08/22 16:08:20;;;;;;;2.90;1.73;;;;;;;;;;4964979;28;20590;-66
2022/08/22 16:10:54;;;;;;;3.90;1.85;;;;;;;;;;4962641;28;20618;-66